sensor_id;sensor_type;location;lat;lon;timestamp;P1;durP1;ratioP1;P2;durP2;ratioP2
21546;SDS011;41275;51.912;4.388;2024-02-16T00:04:40;4.18;;;1.60;;
21546;SDS011;41275;51.912;4.388;2024-02-16T00:10:01;4.30;;;1.70;;
21546;SDS011;41275;51.912;4.388;2024-02-16T00:15:24;2.72;;;1.33;;
21546;SDS011;41275;51.912;4.388;2024-02-16T00:20:45;4.32;;;1.70;;
21546;SDS011;41275;51.912;4.388;2024-02-16T00:26:07;3.97;;;1.65;;
21546;SDS011;41275;51.912;4.388;2024-02-16T00:31:28;3.10;;;1.75;;
21546;SDS011;41275;51.912;4.388;2024-02-16T00:36:51;3.50;;;1.40;;
21546;SDS011;41275;51.912;4.388;2024-02-16T00:42:12;4.25;;;1.60;;
21546;SDS011;41275;51.912;4.388;2024-02-16T00:47:34;4.57;;;1.70;;
21546;SDS011;41275;51.912;4.388;2024-02-16T00:52:55;2.53;;;1.23;;
21546;SDS011;41275;51.912;4.388;2024-02-16T00:58:16;4.60;;;1.50;;
21546;SDS011;41275;51.912;4.388;2024-02-16T01:03:38;3.78;;;1.58;;
21546;SDS011;41275;51.912;4.388;2024-02-16T01:08:59;5.37;;;1.90;;
21546;SDS011;41275;51.912;4.388;2024-02-16T01:14:20;3.03;;;1.38;;
21546;SDS011;41275;51.912;4.388;2024-02-16T01:19:42;3.72;;;1.50;;
21546;SDS011;41275;51.912;4.388;2024-02-16T01:25:03;6.68;;;1.80;;
21546;SDS011;41275;51.912;4.388;2024-02-16T01:30:25;4.93;;;1.58;;
21546;SDS011;41275;51.912;4.388;2024-02-16T01:35:46;5.27;;;1.77;;
21546;SDS011;41275;51.912;4.388;2024-02-16T01:41:07;4.10;;;1.70;;
21546;SDS011;41275;51.912;4.388;2024-02-16T01:46:29;5.07;;;1.92;;
21546;SDS011;41275;51.912;4.388;2024-02-16T01:51:51;4.85;;;2.00;;
21546;SDS011;41275;51.912;4.388;2024-02-16T01:57:12;4.68;;;2.08;;
21546;SDS011;41275;51.912;4.388;2024-02-16T02:02:35;4.47;;;2.13;;
21546;SDS011;41275;51.912;4.388;2024-02-16T02:07:57;3.50;;;1.73;;
21546;SDS011;41275;51.912;4.388;2024-02-16T02:13:18;4.78;;;1.90;;
21546;SDS011;41275;51.912;4.388;2024-02-16T02:18:40;7.40;;;2.00;;
21546;SDS011;41275;51.912;4.388;2024-02-16T02:24:01;5.28;;;1.90;;
21546;SDS011;41275;51.912;4.388;2024-02-16T02:29:23;3.58;;;1.83;;
21546;SDS011;41275;51.912;4.388;2024-02-16T02:34:44;5.50;;;1.73;;
21546;SDS011;41275;51.912;4.388;2024-02-16T02:40:05;4.25;;;1.73;;
21546;SDS011;41275;51.912;4.388;2024-02-16T02:45:29;2.93;;;1.67;;
21546;SDS011;41275;51.912;4.388;2024-02-16T02:50:50;4.72;;;1.63;;
21546;SDS011;41275;51.912;4.388;2024-02-16T02:56:11;5.10;;;1.88;;
21546;SDS011;41275;51.912;4.388;2024-02-16T03:01:33;4.93;;;1.73;;
21546;SDS011;41275;51.912;4.388;2024-02-16T03:06:56;4.50;;;1.75;;
21546;SDS011;41275;51.912;4.388;2024-02-16T03:12:17;3.55;;;1.80;;
21546;SDS011;41275;51.912;4.388;2024-02-16T03:17:39;5.20;;;1.95;;
21546;SDS011;41275;51.912;4.388;2024-02-16T03:23:00;3.53;;;1.87;;
21546;SDS011;41275;51.912;4.388;2024-02-16T03:28:21;3.35;;;1.70;;
21546;SDS011;41275;51.912;4.388;2024-02-16T03:33:43;3.30;;;1.55;;
21546;SDS011;41275;51.912;4.388;2024-02-16T03:39:04;3.83;;;1.63;;
21546;SDS011;41275;51.912;4.388;2024-02-16T03:44:25;6.10;;;2.03;;
21546;SDS011;41275;51.912;4.388;2024-02-16T03:49:47;4.93;;;1.83;;
21546;SDS011;41275;51.912;4.388;2024-02-16T03:55:08;5.70;;;2.10;;
21546;SDS011;41275;51.912;4.388;2024-02-16T04:00:29;3.80;;;1.60;;
21546;SDS011;41275;51.912;4.388;2024-02-16T04:05:53;3.22;;;1.60;;
21546;SDS011;41275;51.912;4.388;2024-02-16T04:11:14;4.82;;;1.80;;
21546;SDS011;41275;51.912;4.388;2024-02-16T04:16:36;6.22;;;1.65;;
21546;SDS011;41275;51.912;4.388;2024-02-16T04:21:57;4.50;;;1.75;;
21546;SDS011;41275;51.912;4.388;2024-02-16T04:27:18;5.60;;;1.97;;
21546;SDS011;41275;51.912;4.388;2024-02-16T04:32:39;4.75;;;2.03;;
21546;SDS011;41275;51.912;4.388;2024-02-16T04:38:01;4.65;;;2.13;;
21546;SDS011;41275;51.912;4.388;2024-02-16T04:43:22;4.53;;;1.77;;
21546;SDS011;41275;51.912;4.388;2024-02-16T04:48:44;4.50;;;2.00;;
21546;SDS011;41275;51.912;4.388;2024-02-16T04:54:05;4.85;;;2.13;;
21546;SDS011;41275;51.912;4.388;2024-02-16T04:59:26;4.68;;;1.65;;
21546;SDS011;41275;51.912;4.388;2024-02-16T05:04:48;8.68;;;2.20;;
21546;SDS011;41275;51.912;4.388;2024-02-16T05:10:10;5.33;;;2.07;;
21546;SDS011;41275;51.912;4.388;2024-02-16T05:15:31;4.38;;;2.00;;
21546;SDS011;41275;51.912;4.388;2024-02-16T05:20:53;4.13;;;2.13;;
21546;SDS011;41275;51.912;4.388;2024-02-16T05:26:14;7.30;;;2.17;;
21546;SDS011;41275;51.912;4.388;2024-02-16T05:31:36;4.78;;;2.30;;
21546;SDS011;41275;51.912;4.388;2024-02-16T05:36:57;6.43;;;2.20;;
21546;SDS011;41275;51.912;4.388;2024-02-16T05:42:19;9.23;;;2.50;;
21546;SDS011;41275;51.912;4.388;2024-02-16T05:47:43;5.27;;;2.00;;
21546;SDS011;41275;51.912;4.388;2024-02-16T05:53:06;4.03;;;2.10;;
21546;SDS011;41275;51.912;4.388;2024-02-16T05:58:31;6.13;;;2.70;;
21546;SDS011;41275;51.912;4.388;2024-02-16T06:03:52;7.45;;;2.08;;
21546;SDS011;41275;51.912;4.388;2024-02-16T06:09:13;4.53;;;2.20;;
21546;SDS011;41275;51.912;4.388;2024-02-16T06:14:34;5.37;;;2.40;;
21546;SDS011;41275;51.912;4.388;2024-02-16T06:19:57;6.35;;;2.20;;
21546;SDS011;41275;51.912;4.388;2024-02-16T06:25:18;5.83;;;1.90;;
21546;SDS011;41275;51.912;4.388;2024-02-16T06:30:39;5.65;;;2.30;;
21546;SDS011;41275;51.912;4.388;2024-02-16T06:36:01;5.32;;;2.17;;
21546;SDS011;41275;51.912;4.388;2024-02-16T06:41:22;6.43;;;2.28;;
21546;SDS011;41275;51.912;4.388;2024-02-16T06:46:43;6.00;;;2.50;;
21546;SDS011;41275;51.912;4.388;2024-02-16T06:52:04;5.05;;;2.33;;
21546;SDS011;41275;51.912;4.388;2024-02-16T06:57:26;4.83;;;2.40;;
21546;SDS011;41275;51.912;4.388;2024-02-16T07:02:47;5.18;;;2.10;;
21546;SDS011;41275;51.912;4.388;2024-02-16T07:08:08;5.82;;;2.60;;
21546;SDS011;41275;51.912;4.388;2024-02-16T07:13:31;4.77;;;2.13;;
21546;SDS011;41275;51.912;4.388;2024-02-16T07:18:52;4.60;;;2.10;;
21546;SDS011;41275;51.912;4.388;2024-02-16T07:24:13;4.60;;;2.03;;
21546;SDS011;41275;51.912;4.388;2024-02-16T07:29:36;5.20;;;1.92;;
21546;SDS011;41275;51.912;4.388;2024-02-16T07:34:59;4.13;;;1.90;;
21546;SDS011;41275;51.912;4.388;2024-02-16T07:40:20;6.77;;;2.30;;
21546;SDS011;41275;51.912;4.388;2024-02-16T07:45:42;4.37;;;2.17;;
21546;SDS011;41275;51.912;4.388;2024-02-16T07:51:03;5.97;;;2.10;;
21546;SDS011;41275;51.912;4.388;2024-02-16T07:56:25;5.43;;;2.10;;
21546;SDS011;41275;51.912;4.388;2024-02-16T08:01:46;5.33;;;2.13;;
21546;SDS011;41275;51.912;4.388;2024-02-16T08:07:08;5.57;;;2.20;;
21546;SDS011;41275;51.912;4.388;2024-02-16T08:12:30;4.80;;;2.30;;
21546;SDS011;41275;51.912;4.388;2024-02-16T08:17:52;5.70;;;2.20;;
21546;SDS011;41275;51.912;4.388;2024-02-16T08:23:14;6.07;;;2.40;;
21546;SDS011;41275;51.912;4.388;2024-02-16T08:28:35;5.07;;;2.58;;
21546;SDS011;41275;51.912;4.388;2024-02-16T08:33:56;7.18;;;2.33;;
21546;SDS011;41275;51.912;4.388;2024-02-16T08:39:17;9.70;;;2.55;;
21546;SDS011;41275;51.912;4.388;2024-02-16T08:44:40;7.10;;;2.70;;
21546;SDS011;41275;51.912;4.388;2024-02-16T08:50:03;10.02;;;2.70;;
21546;SDS011;41275;51.912;4.388;2024-02-16T08:55:24;7.72;;;2.60;;
21546;SDS011;41275;51.912;4.388;2024-02-16T09:00:46;5.93;;;2.67;;
21546;SDS011;41275;51.912;4.388;2024-02-16T09:06:07;6.87;;;3.10;;
21546;SDS011;41275;51.912;4.388;2024-02-16T09:11:28;8.18;;;2.92;;
21546;SDS011;41275;51.912;4.388;2024-02-16T09:16:49;8.02;;;3.15;;
21546;SDS011;41275;51.912;4.388;2024-02-16T09:22:13;8.68;;;3.00;;
21546;SDS011;41275;51.912;4.388;2024-02-16T09:27:35;4.97;;;2.78;;
21546;SDS011;41275;51.912;4.388;2024-02-16T09:33:01;10.45;;;3.78;;
21546;SDS011;41275;51.912;4.388;2024-02-16T09:38:23;9.02;;;3.47;;
21546;SDS011;41275;51.912;4.388;2024-02-16T09:43:44;8.93;;;4.63;;
21546;SDS011;41275;51.912;4.388;2024-02-16T09:49:05;13.82;;;4.43;;
21546;SDS011;41275;51.912;4.388;2024-02-16T09:54:26;10.13;;;4.50;;
21546;SDS011;41275;51.912;4.388;2024-02-16T09:59:48;13.17;;;4.50;;
21546;SDS011;41275;51.912;4.388;2024-02-16T10:05:30;13.63;;;4.78;;
21546;SDS011;41275;51.912;4.388;2024-02-16T10:10:59;12.43;;;4.28;;
21546;SDS011;41275;51.912;4.388;2024-02-16T10:16:21;11.52;;;4.25;;
21546;SDS011;41275;51.912;4.388;2024-02-16T10:21:43;11.98;;;4.15;;
21546;SDS011;41275;51.912;4.388;2024-02-16T10:27:05;6.50;;;3.08;;
21546;SDS011;41275;51.912;4.388;2024-02-16T10:32:27;7.78;;;4.03;;
21546;SDS011;41275;51.912;4.388;2024-02-16T10:37:49;10.03;;;3.53;;
21546;SDS011;41275;51.912;4.388;2024-02-16T10:43:11;10.68;;;4.30;;
21546;SDS011;41275;51.912;4.388;2024-02-16T10:48:34;12.03;;;5.03;;
21546;SDS011;41275;51.912;4.388;2024-02-16T10:53:55;8.60;;;3.92;;
21546;SDS011;41275;51.912;4.388;2024-02-16T10:59:18;10.35;;;4.15;;
21546;SDS011;41275;51.912;4.388;2024-02-16T11:04:40;10.93;;;4.20;;
21546;SDS011;41275;51.912;4.388;2024-02-16T11:10:01;8.67;;;3.80;;
21546;SDS011;41275;51.912;4.388;2024-02-16T11:15:30;8.07;;;3.17;;
21546;SDS011;41275;51.912;4.388;2024-02-16T11:20:53;10.93;;;3.40;;
21546;SDS011;41275;51.912;4.388;2024-02-16T11:26:17;6.90;;;2.72;;
21546;SDS011;41275;51.912;4.388;2024-02-16T11:31:38;7.47;;;3.13;;
21546;SDS011;41275;51.912;4.388;2024-02-16T11:37:00;7.10;;;3.45;;
21546;SDS011;41275;51.912;4.388;2024-02-16T11:42:22;7.40;;;2.85;;
21546;SDS011;41275;51.912;4.388;2024-02-16T11:47:43;4.35;;;2.42;;
21546;SDS011;41275;51.912;4.388;2024-02-16T11:53:05;4.13;;;1.90;;
21546;SDS011;41275;51.912;4.388;2024-02-16T11:58:26;3.05;;;1.75;;
21546;SDS011;41275;51.912;4.388;2024-02-16T12:03:48;4.53;;;1.98;;
21546;SDS011;41275;51.912;4.388;2024-02-16T12:09:09;4.37;;;1.80;;
21546;SDS011;41275;51.912;4.388;2024-02-16T12:14:31;4.18;;;2.05;;
21546;SDS011;41275;51.912;4.388;2024-02-16T12:19:52;4.75;;;2.30;;
21546;SDS011;41275;51.912;4.388;2024-02-16T12:25:13;6.32;;;2.88;;
21546;SDS011;41275;51.912;4.388;2024-02-16T12:30:34;7.20;;;2.70;;
21546;SDS011;41275;51.912;4.388;2024-02-16T12:35:56;5.80;;;2.30;;
21546;SDS011;41275;51.912;4.388;2024-02-16T12:41:17;5.32;;;2.90;;
21546;SDS011;41275;51.912;4.388;2024-02-16T12:46:38;7.35;;;2.72;;
21546;SDS011;41275;51.912;4.388;2024-02-16T12:52:00;6.60;;;2.65;;
21546;SDS011;41275;51.912;4.388;2024-02-16T12:57:21;4.55;;;2.33;;
21546;SDS011;41275;51.912;4.388;2024-02-16T13:02:43;6.17;;;2.33;;
21546;SDS011;41275;51.912;4.388;2024-02-16T13:08:04;4.33;;;2.30;;
21546;SDS011;41275;51.912;4.388;2024-02-16T13:13:26;3.87;;;2.00;;
21546;SDS011;41275;51.912;4.388;2024-02-16T13:18:47;4.18;;;2.08;;
21546;SDS011;41275;51.912;4.388;2024-02-16T13:24:08;5.03;;;2.00;;
21546;SDS011;41275;51.912;4.388;2024-02-16T13:29:29;7.23;;;2.00;;
21546;SDS011;41275;51.912;4.388;2024-02-16T13:34:50;4.20;;;2.00;;
21546;SDS011;41275;51.912;4.388;2024-02-16T13:40:12;5.88;;;2.03;;
21546;SDS011;41275;51.912;4.388;2024-02-16T13:45:50;4.65;;;2.33;;
21546;SDS011;41275;51.912;4.388;2024-02-16T13:51:12;6.50;;;2.63;;
21546;SDS011;41275;51.912;4.388;2024-02-16T13:56:33;5.67;;;2.27;;
21546;SDS011;41275;51.912;4.388;2024-02-16T14:01:56;5.55;;;2.03;;
21546;SDS011;41275;51.912;4.388;2024-02-16T14:07:18;4.82;;;2.15;;
21546;SDS011;41275;51.912;4.388;2024-02-16T14:12:39;6.83;;;2.23;;
21546;SDS011;41275;51.912;4.388;2024-02-16T14:18:00;4.50;;;1.85;;
21546;SDS011;41275;51.912;4.388;2024-02-16T14:23:21;5.38;;;1.80;;
21546;SDS011;41275;51.912;4.388;2024-02-16T14:28:43;4.57;;;1.80;;
21546;SDS011;41275;51.912;4.388;2024-02-16T14:34:04;3.90;;;1.75;;
21546;SDS011;41275;51.912;4.388;2024-02-16T14:39:25;6.00;;;1.93;;
21546;SDS011;41275;51.912;4.388;2024-02-16T14:44:46;6.95;;;1.65;;
21546;SDS011;41275;51.912;4.388;2024-02-16T14:50:08;4.15;;;1.63;;
21546;SDS011;41275;51.912;4.388;2024-02-16T14:55:32;3.73;;;1.53;;
21546;SDS011;41275;51.912;4.388;2024-02-16T15:00:53;3.63;;;1.70;;
21546;SDS011;41275;51.912;4.388;2024-02-16T15:06:15;6.03;;;1.80;;
21546;SDS011;41275;51.912;4.388;2024-02-16T15:11:36;4.93;;;1.98;;
21546;SDS011;41275;51.912;4.388;2024-02-16T15:16:59;4.63;;;1.60;;
21546;SDS011;41275;51.912;4.388;2024-02-16T15:22:20;3.83;;;1.60;;
21546;SDS011;41275;51.912;4.388;2024-02-16T15:27:41;3.33;;;1.23;;
21546;SDS011;41275;51.912;4.388;2024-02-16T15:33:03;5.05;;;1.60;;
21546;SDS011;41275;51.912;4.388;2024-02-16T15:38:25;5.03;;;1.60;;
21546;SDS011;41275;51.912;4.388;2024-02-16T15:43:46;6.60;;;1.35;;
21546;SDS011;41275;51.912;4.388;2024-02-16T15:49:07;4.60;;;1.30;;
21546;SDS011;41275;51.912;4.388;2024-02-16T15:54:29;4.53;;;1.10;;
21546;SDS011;41275;51.912;4.388;2024-02-16T15:59:51;2.08;;;1.02;;
21546;SDS011;41275;51.912;4.388;2024-02-16T16:05:12;3.95;;;1.10;;
21546;SDS011;41275;51.912;4.388;2024-02-16T16:10:34;3.15;;;1.38;;
21546;SDS011;41275;51.912;4.388;2024-02-16T16:15:55;4.15;;;1.10;;
21546;SDS011;41275;51.912;4.388;2024-02-16T16:21:17;2.53;;;1.10;;
21546;SDS011;41275;51.912;4.388;2024-02-16T16:26:38;6.25;;;1.08;;
21546;SDS011;41275;51.912;4.388;2024-02-16T16:31:59;10.52;;;2.60;;
21546;SDS011;41275;51.912;4.388;2024-02-16T16:37:24;3.08;;;1.30;;
21546;SDS011;41275;51.912;4.388;2024-02-16T16:42:47;5.65;;;1.38;;
21546;SDS011;41275;51.912;4.388;2024-02-16T16:48:08;3.77;;;1.30;;
21546;SDS011;41275;51.912;4.388;2024-02-16T16:53:30;2.90;;;1.30;;
21546;SDS011;41275;51.912;4.388;2024-02-16T16:58:51;6.07;;;1.43;;
21546;SDS011;41275;51.912;4.388;2024-02-16T17:04:12;4.05;;;1.17;;
21546;SDS011;41275;51.912;4.388;2024-02-16T17:09:34;7.75;;;1.85;;
21546;SDS011;41275;51.912;4.388;2024-02-16T17:14:55;3.38;;;1.30;;
21546;SDS011;41275;51.912;4.388;2024-02-16T17:20:18;9.53;;;1.67;;
21546;SDS011;41275;51.912;4.388;2024-02-16T17:26:00;4.47;;;1.50;;
21546;SDS011;41275;51.912;4.388;2024-02-16T17:31:22;3.53;;;1.15;;
21546;SDS011;41275;51.912;4.388;2024-02-16T17:36:43;4.25;;;1.25;;
21546;SDS011;41275;51.912;4.388;2024-02-16T17:42:18;4.10;;;1.33;;
21546;SDS011;41275;51.912;4.388;2024-02-16T17:47:46;3.78;;;1.58;;
21546;SDS011;41275;51.912;4.388;2024-02-16T17:53:08;4.95;;;1.45;;
21546;SDS011;41275;51.912;4.388;2024-02-16T17:58:35;5.97;;;1.80;;
21546;SDS011;41275;51.912;4.388;2024-02-16T18:03:56;4.88;;;1.58;;
21546;SDS011;41275;51.912;4.388;2024-02-16T18:09:18;6.63;;;1.52;;
21546;SDS011;41275;51.912;4.388;2024-02-16T18:14:42;5.03;;;1.60;;
21546;SDS011;41275;51.912;4.388;2024-02-16T18:20:06;4.13;;;1.60;;
21546;SDS011;41275;51.912;4.388;2024-02-16T18:25:28;3.75;;;1.20;;
21546;SDS011;41275;51.912;4.388;2024-02-16T18:30:50;6.38;;;1.80;;
21546;SDS011;41275;51.912;4.388;2024-02-16T18:36:11;4.57;;;1.63;;
21546;SDS011;41275;51.912;4.388;2024-02-16T18:41:33;5.88;;;1.92;;
21546;SDS011;41275;51.912;4.388;2024-02-16T18:46:54;4.47;;;1.50;;
21546;SDS011;41275;51.912;4.388;2024-02-16T18:52:16;5.60;;;1.60;;
21546;SDS011;41275;51.912;4.388;2024-02-16T18:57:38;8.27;;;1.77;;
21546;SDS011;41275;51.912;4.388;2024-02-16T19:03:19;10.70;;;1.95;;
21546;SDS011;41275;51.912;4.388;2024-02-16T19:09:02;6.05;;;1.90;;
21546;SDS011;41275;51.912;4.388;2024-02-16T19:14:24;4.85;;;1.70;;
21546;SDS011;41275;51.912;4.388;2024-02-16T19:19:52;6.97;;;2.10;;
21546;SDS011;41275;51.912;4.388;2024-02-16T19:25:16;6.15;;;1.65;;
21546;SDS011;41275;51.912;4.388;2024-02-16T19:30:38;4.93;;;1.90;;
21546;SDS011;41275;51.912;4.388;2024-02-16T19:36:00;5.68;;;1.75;;
21546;SDS011;41275;51.912;4.388;2024-02-16T19:41:22;7.65;;;1.70;;
21546;SDS011;41275;51.912;4.388;2024-02-16T19:46:43;4.25;;;1.60;;
21546;SDS011;41275;51.912;4.388;2024-02-16T19:52:05;8.40;;;2.40;;
21546;SDS011;41275;51.912;4.388;2024-02-16T19:57:26;7.63;;;1.93;;
21546;SDS011;41275;51.912;4.388;2024-02-16T20:02:48;6.57;;;2.00;;
21546;SDS011;41275;51.912;4.388;2024-02-16T20:08:12;6.50;;;2.00;;
21546;SDS011;41275;51.912;4.388;2024-02-16T20:13:36;4.90;;;2.00;;
21546;SDS011;41275;51.912;4.388;2024-02-16T20:18:58;8.73;;;2.58;;
21546;SDS011;41275;51.912;4.388;2024-02-16T20:24:19;7.35;;;2.20;;
21546;SDS011;41275;51.912;4.388;2024-02-16T20:29:40;5.95;;;1.92;;
21546;SDS011;41275;51.912;4.388;2024-02-16T20:35:02;6.78;;;2.03;;
21546;SDS011;41275;51.912;4.388;2024-02-16T20:40:30;4.47;;;1.63;;
21546;SDS011;41275;51.912;4.388;2024-02-16T20:45:54;5.20;;;2.00;;
21546;SDS011;41275;51.912;4.388;2024-02-16T20:51:16;7.00;;;2.40;;
21546;SDS011;41275;51.912;4.388;2024-02-16T20:56:39;7.88;;;1.92;;
21546;SDS011;41275;51.912;4.388;2024-02-16T21:02:00;5.32;;;1.77;;
21546;SDS011;41275;51.912;4.388;2024-02-16T21:07:21;8.23;;;2.47;;
21546;SDS011;41275;51.912;4.388;2024-02-16T21:12:43;6.43;;;1.73;;
21546;SDS011;41275;51.912;4.388;2024-02-16T21:18:04;10.30;;;2.07;;
21546;SDS011;41275;51.912;4.388;2024-02-16T21:23:25;7.57;;;2.10;;
21546;SDS011;41275;51.912;4.388;2024-02-16T21:28:47;8.73;;;1.63;;
21546;SDS011;41275;51.912;4.388;2024-02-16T21:34:08;7.07;;;1.83;;
21546;SDS011;41275;51.912;4.388;2024-02-16T21:39:30;5.50;;;1.70;;
21546;SDS011;41275;51.912;4.388;2024-02-16T21:44:51;6.40;;;1.60;;
21546;SDS011;41275;51.912;4.388;2024-02-16T21:50:12;5.65;;;1.73;;
21546;SDS011;41275;51.912;4.388;2024-02-16T21:55:34;10.18;;;1.70;;
21546;SDS011;41275;51.912;4.388;2024-02-16T22:00:56;5.97;;;1.80;;
21546;SDS011;41275;51.912;4.388;2024-02-16T22:06:20;4.50;;;1.37;;
21546;SDS011;41275;51.912;4.388;2024-02-16T22:11:42;4.13;;;1.30;;
21546;SDS011;41275;51.912;4.388;2024-02-16T22:17:03;4.10;;;1.20;;
21546;SDS011;41275;51.912;4.388;2024-02-16T22:22:25;3.65;;;1.33;;
21546;SDS011;41275;51.912;4.388;2024-02-16T22:27:46;3.60;;;1.25;;
21546;SDS011;41275;51.912;4.388;2024-02-16T22:33:07;4.77;;;1.20;;
21546;SDS011;41275;51.912;4.388;2024-02-16T22:38:28;3.33;;;1.10;;
21546;SDS011;41275;51.912;4.388;2024-02-16T22:43:53;4.57;;;1.10;;
21546;SDS011;41275;51.912;4.388;2024-02-16T22:49:14;5.25;;;1.20;;
21546;SDS011;41275;51.912;4.388;2024-02-16T22:54:35;3.92;;;1.05;;
21546;SDS011;41275;51.912;4.388;2024-02-16T22:59:56;5.60;;;1.33;;
21546;SDS011;41275;51.912;4.388;2024-02-16T23:05:21;4.87;;;1.20;;
21546;SDS011;41275;51.912;4.388;2024-02-16T23:10:44;5.95;;;1.40;;
21546;SDS011;41275;51.912;4.388;2024-02-16T23:16:06;8.10;;;1.55;;
21546;SDS011;41275;51.912;4.388;2024-02-16T23:21:30;4.28;;;1.40;;
21546;SDS011;41275;51.912;4.388;2024-02-16T23:26:51;6.30;;;1.07;;
21546;SDS011;41275;51.912;4.388;2024-02-16T23:32:13;4.20;;;0.95;;
21546;SDS011;41275;51.912;4.388;2024-02-16T23:37:34;6.03;;;1.37;;
21546;SDS011;41275;51.912;4.388;2024-02-16T23:42:55;5.47;;;1.10;;
21546;SDS011;41275;51.912;4.388;2024-02-16T23:48:16;4.78;;;1.02;;
21546;SDS011;41275;51.912;4.388;2024-02-16T23:53:38;4.80;;;1.40;;
21546;SDS011;41275;51.912;4.388;2024-02-16T23:58:59;5.20;;;1.20;;
